KFAT/FAT METAR and TAF weather

Enter ICAO airport designator
Station Type Date Time Source
KFAT METAR 2020/01/26 18:53 UTC NOAA

KFAT 261853Z 00000KT 5SM HZ BKN050 OVC060 14/11 A3023 RMK AO2 RAB15E29 SLP236 P0000 T01390111


Station Type Date Time Source
KFAT Decoded METAR 2020/01/26 18:53 UTC NOAA

FRESNO AIR TERMINAL, CA, United States (KFAT) 36-47N 119-43W 104M
Jan 26, 2020 - 01:53 PM EST / 2020.01.26 1853 UTC
Wind: Calm:0
Visibility: 5 mile(s):0
Sky conditions: overcast
Weather: haze
Precipitation last hour: A trace
Temperature: 57.0 F (13.9 C)
Dew Point: 52.0 F (11.1 C)
Relative Humidity: 83%
Pressure (altimeter): 30.23 in. Hg (1023 hPa)
ob: KFAT 261853Z 00000KT 5SM HZ BKN050 OVC060 14/11 A3023 RMK AO2 RAB15E29 SLP236 P0000 T01390111
cycle: 19

Station Type Date Time Source
KFAT TAF 2020/01/26 18:24 UTC NOAA

TAF KFAT 261721Z 2618/2718 VRB03KT 4SM BR VCSH OVC035
FM262200 32006KT P6SM SCT025 BKN050
FM270300 31008KT P6SM BKN200
FM270600 32003KT 4SM BR SKC

Example: see airport list